Details From KSPG - Albert Whitted
To KVRB - Vero Beach Muni
Flight Number -
Tags Generated
Created
Modified
Stats Distance 118 nm / 218 km
Max Altitude 0 ft / 0 m
Waypoints 2
Social Downloads 3
Likes 0
Share VATSIM

Download

Looking for another format? Having issues loading an existing format? Contact us
Advertisement - Login to hide

Notes

Generated

Route

KSPG KVRB

ID Type Via Altitude Latitude Longitude Leg Dist Tot Dist Heading (true) Name
O KSPG APT - 0 ft / 0 m 27.76850˚ -82.62491˚ - 0 nm - -
O KVRB APT - 0 ft / 0 m 27.66038˚ -80.41690˚ 117 nm 117 nm 93° / 94° Vero Beach Municipal

Altitude Profile

Advertisement - Login to hide

KSPG

Details ICAO KSPG (SPG)
Name Albert Whitted
Region United States
Timezone America/New_York (UTC-5.0)
Stats Elevation 7 ft / 2 m (AMSL)
Location 27.765051° -82.626745°
Runways 2
Magnetic Variation 5.465° W

METAR

KSPG 121653Z 29015G20KT 10SM CLR 21/12 A2999 RMK AO2 SLP155 T02110117

Decode

TAF

Not found

Departure Runways

ID Width Length Bearing (true) Bearing (mag) Surface Threshold Offset Overrun Length
06 75 ft / 23 m 3,676 ft / 1,120 m 61.97° 67.44° Asphalt 558 ft / 170 m 0 ft / 0 m
18 150 ft / 46 m 2,875 ft / 876 m 179.64° 185.11° Asphalt 0 ft / 0 m 0 ft / 0 m
24 75 ft / 23 m 3,676 ft / 1,120 m 241.98° 247.45° Asphalt 263 ft / 80 m 0 ft / 0 m
36 150 ft / 46 m 2,875 ft / 876 m 359.64° 5.11° Asphalt 0 ft / 0 m 0 ft / 0 m

KVRB

Details ICAO KVRB (VRB)
Name Vero Beach Municipal
Region United States
Timezone America/New_York (UTC-5.0)
Stats Elevation 24 ft / 7 m (AMSL)
Location 27.656065° -80.417349°
Runways 3
Magnetic Variation 6.842° W

METAR

KVRB 121653Z 26013KT 10SM CLR 21/11 A3001 RMK AO2 SLP160 T02110111

Decode

TAF

TAF KVRB 121121Z 1212/1312 24004KT P6SM SKC FM121500 25009KT P6SM SCT250 FM121700 26012G19KT P6SM FEW040 BKN250 FM130000 27010KT P6SM SKC FM130400 30009KT P6SM SKC

Decode

Destination Runways

ID Width Length Bearing (true) Bearing (mag) Surface Threshold Offset Overrun Length
11L 75 ft / 23 m 3,507 ft / 1,069 m 110.96° 117.80° Asphalt 200 ft / 61 m 0 ft / 0 m
11R 98 ft / 30 m 7,321 ft / 2,231 m 110.72° 117.56° Asphalt 200 ft / 61 m 151 ft / 46 m
22 98 ft / 30 m 4,980 ft / 1,518 m 215.96° 222.80° Asphalt 200 ft / 61 m 0 ft / 0 m
29L 98 ft / 30 m 7,321 ft / 2,231 m 290.73° 297.57° Asphalt 200 ft / 61 m 177 ft / 54 m
29R 75 ft / 23 m 3,507 ft / 1,069 m 290.96° 297.80° Asphalt 200 ft / 61 m 0 ft / 0 m
4 98 ft / 30 m 4,980 ft / 1,518 m 35.96° 42.80° Asphalt 200 ft / 61 m 0 ft / 0 m

Popular Alternatives